sensor_id;sensor_type;location;lat;lon;timestamp;P1;durP1;ratioP1;P2;durP2;ratioP2
46116;SDS011;32591;48.102;11.772;2022-12-13T00:00:45;14.17;;;5.40;;
46116;SDS011;32591;48.102;11.772;2022-12-13T00:03:13;13.73;;;5.33;;
46116;SDS011;32591;48.102;11.772;2022-12-13T00:05:44;12.60;;;5.10;;
46116;SDS011;32591;48.102;11.772;2022-12-13T00:08:11;11.80;;;4.80;;
46116;SDS011;32591;48.102;11.772;2022-12-13T00:10:38;12.90;;;5.60;;
46116;SDS011;32591;48.102;11.772;2022-12-13T00:13:05;14.10;;;5.20;;
46116;SDS011;32591;48.102;11.772;2022-12-13T00:15:32;11.80;;;4.83;;
46116;SDS011;32591;48.102;11.772;2022-12-13T00:17:59;15.40;;;6.03;;
46116;SDS011;32591;48.102;11.772;2022-12-13T00:22:54;17.73;;;6.50;;
46116;SDS011;32591;48.102;11.772;2022-12-13T00:25:21;21.97;;;6.07;;
46116;SDS011;32591;48.102;11.772;2022-12-13T00:27:48;23.73;;;7.50;;
46116;SDS011;32591;48.102;11.772;2022-12-13T00:30:15;20.17;;;7.63;;
46116;SDS011;32591;48.102;11.772;2022-12-13T00:32:52;17.73;;;4.88;;
46116;SDS011;32591;48.102;11.772;2022-12-13T00:35:19;17.03;;;6.80;;
46116;SDS011;32591;48.102;11.772;2022-12-13T00:37:46;25.40;;;6.37;;
46116;SDS011;32591;48.102;11.772;2022-12-13T00:40:15;20.20;;;6.63;;
46116;SDS011;32591;48.102;11.772;2022-12-13T00:42:42;15.20;;;4.93;;
46116;SDS011;32591;48.102;11.772;2022-12-13T00:45:09;13.37;;;5.60;;
46116;SDS011;32591;48.102;11.772;2022-12-13T00:47:37;10.93;;;5.23;;
46116;SDS011;32591;48.102;11.772;2022-12-13T00:50:04;12.10;;;4.77;;
46116;SDS011;32591;48.102;11.772;2022-12-13T00:52:32;11.07;;;4.73;;
46116;SDS011;32591;48.102;11.772;2022-12-13T00:54:59;8.90;;;4.93;;
46116;SDS011;32591;48.102;11.772;2022-12-13T00:57:28;9.67;;;4.43;;
46116;SDS011;32591;48.102;11.772;2022-12-13T00:59:55;10.60;;;4.97;;
46116;SDS011;32591;48.102;11.772;2022-12-13T01:02:22;8.47;;;4.37;;
46116;SDS011;32591;48.102;11.772;2022-12-13T01:07:16;9.03;;;3.40;;
46116;SDS011;32591;48.102;11.772;2022-12-13T01:09:43;7.63;;;3.27;;
46116;SDS011;32591;48.102;11.772;2022-12-13T01:12:10;7.37;;;3.53;;
46116;SDS011;32591;48.102;11.772;2022-12-13T01:14:39;6.43;;;3.60;;
46116;SDS011;32591;48.102;11.772;2022-12-13T01:17:06;10.93;;;4.80;;
46116;SDS011;32591;48.102;11.772;2022-12-13T01:19:34;6.23;;;2.90;;
46116;SDS011;32591;48.102;11.772;2022-12-13T01:22:02;11.00;;;4.17;;
46116;SDS011;32591;48.102;11.772;2022-12-13T01:24:31;12.07;;;3.83;;
46116;SDS011;32591;48.102;11.772;2022-12-13T01:26:58;6.47;;;3.23;;
46116;SDS011;32591;48.102;11.772;2022-12-13T01:29:26;7.63;;;4.33;;
46116;SDS011;32591;48.102;11.772;2022-12-13T01:31:55;9.70;;;4.57;;
46116;SDS011;32591;48.102;11.772;2022-12-13T01:34:23;12.10;;;4.43;;
46116;SDS011;32591;48.102;11.772;2022-12-13T01:36:51;10.13;;;4.30;;
46116;SDS011;32591;48.102;11.772;2022-12-13T01:39:19;10.47;;;4.87;;
46116;SDS011;32591;48.102;11.772;2022-12-13T01:41:47;7.87;;;3.70;;
46116;SDS011;32591;48.102;11.772;2022-12-13T01:47:40;11.23;;;4.33;;
46116;SDS011;32591;48.102;11.772;2022-12-13T01:50:12;7.17;;;4.23;;
46116;SDS011;32591;48.102;11.772;2022-12-13T01:52:45;10.40;;;4.43;;
46116;SDS011;32591;48.102;11.772;2022-12-13T01:55:13;11.83;;;4.00;;
46116;SDS011;32591;48.102;11.772;2022-12-13T01:57:44;10.03;;;4.83;;
46116;SDS011;32591;48.102;11.772;2022-12-13T02:00:14;8.53;;;4.53;;
46116;SDS011;32591;48.102;11.772;2022-12-13T02:02:43;11.97;;;4.87;;
46116;SDS011;32591;48.102;11.772;2022-12-13T02:05:13;8.73;;;4.37;;
46116;SDS011;32591;48.102;11.772;2022-12-13T02:07:48;8.83;;;4.57;;
46116;SDS011;32591;48.102;11.772;2022-12-13T02:10:16;8.77;;;4.70;;
46116;SDS011;32591;48.102;11.772;2022-12-13T02:12:43;13.03;;;4.40;;
46116;SDS011;32591;48.102;11.772;2022-12-13T02:15:12;10.43;;;5.00;;
46116;SDS011;32591;48.102;11.772;2022-12-13T02:17:46;10.40;;;4.80;;
46116;SDS011;32591;48.102;11.772;2022-12-13T02:20:36;7.90;;;3.75;;
46116;SDS011;32591;48.102;11.772;2022-12-13T02:23:45;13.30;;;5.90;;
46116;SDS011;32591;48.102;11.772;2022-12-13T02:26:44;9.23;;;4.83;;
46116;SDS011;32591;48.102;11.772;2022-12-13T02:29:39;10.60;;;4.80;;
46116;SDS011;32591;48.102;11.772;2022-12-13T02:32:56;12.30;;;4.90;;
46116;SDS011;32591;48.102;11.772;2022-12-13T02:35:38;10.97;;;5.93;;
46116;SDS011;32591;48.102;11.772;2022-12-13T02:38:12;17.23;;;6.47;;
46116;SDS011;32591;48.102;11.772;2022-12-13T02:40:50;10.23;;;5.00;;
46116;SDS011;32591;48.102;11.772;2022-12-13T02:43:26;7.00;;;3.97;;
46116;SDS011;32591;48.102;11.772;2022-12-13T02:45:58;13.60;;;5.17;;
46116;SDS011;32591;48.102;11.772;2022-12-13T02:48:28;9.00;;;5.13;;
46116;SDS011;32591;48.102;11.772;2022-12-13T02:50:59;10.53;;;5.40;;
46116;SDS011;32591;48.102;11.772;2022-12-13T02:53:30;9.17;;;4.40;;
46116;SDS011;32591;48.102;11.772;2022-12-13T02:55:58;10.93;;;5.23;;
46116;SDS011;32591;48.102;11.772;2022-12-13T02:58:26;11.23;;;5.40;;
46116;SDS011;32591;48.102;11.772;2022-12-13T03:01:02;13.17;;;5.70;;
46116;SDS011;32591;48.102;11.772;2022-12-13T03:03:46;15.55;;;5.22;;
46116;SDS011;32591;48.102;11.772;2022-12-13T03:06:24;11.30;;;5.03;;
46116;SDS011;32591;48.102;11.772;2022-12-13T03:12:02;9.33;;;4.33;;
46116;SDS011;32591;48.102;11.772;2022-12-13T03:14:57;9.27;;;4.83;;
46116;SDS011;32591;48.102;11.772;2022-12-13T03:17:36;9.93;;;5.10;;
46116;SDS011;32591;48.102;11.772;2022-12-13T03:20:09;11.00;;;5.00;;
46116;SDS011;32591;48.102;11.772;2022-12-13T03:22:42;8.77;;;4.17;;
46116;SDS011;32591;48.102;11.772;2022-12-13T03:25:10;8.33;;;5.17;;
46116;SDS011;32591;48.102;11.772;2022-12-13T03:27:37;9.67;;;4.07;;
46116;SDS011;32591;48.102;11.772;2022-12-13T03:30:04;8.93;;;4.60;;
46116;SDS011;32591;48.102;11.772;2022-12-13T03:32:32;7.77;;;4.67;;
46116;SDS011;32591;48.102;11.772;2022-12-13T03:35:01;9.77;;;4.87;;
46116;SDS011;32591;48.102;11.772;2022-12-13T03:37:28;11.27;;;4.80;;
46116;SDS011;32591;48.102;11.772;2022-12-13T03:39:55;10.47;;;4.47;;
46116;SDS011;32591;48.102;11.772;2022-12-13T03:42:22;12.23;;;5.07;;
46116;SDS011;32591;48.102;11.772;2022-12-13T03:44:49;10.73;;;4.67;;
46116;SDS011;32591;48.102;11.772;2022-12-13T03:47:16;9.60;;;4.70;;
46116;SDS011;32591;48.102;11.772;2022-12-13T03:49:43;12.10;;;4.87;;
46116;SDS011;32591;48.102;11.772;2022-12-13T03:52:12;10.23;;;4.13;;
46116;SDS011;32591;48.102;11.772;2022-12-13T03:54:39;9.43;;;4.70;;
46116;SDS011;32591;48.102;11.772;2022-12-13T03:57:06;8.67;;;4.83;;
46116;SDS011;32591;48.102;11.772;2022-12-13T03:59:33;8.83;;;5.10;;
46116;SDS011;32591;48.102;11.772;2022-12-13T04:01:59;8.33;;;4.30;;
46116;SDS011;32591;48.102;11.772;2022-12-13T04:04:27;9.27;;;4.60;;
46116;SDS011;32591;48.102;11.772;2022-12-13T04:06:54;8.70;;;4.33;;
46116;SDS011;32591;48.102;11.772;2022-12-13T04:09:22;11.27;;;5.03;;
46116;SDS011;32591;48.102;11.772;2022-12-13T04:11:49;9.63;;;4.50;;
46116;SDS011;32591;48.102;11.772;2022-12-13T04:14:34;9.90;;;4.73;;
46116;SDS011;32591;48.102;11.772;2022-12-13T04:17:01;6.90;;;3.50;;
46116;SDS011;32591;48.102;11.772;2022-12-13T04:19:28;9.40;;;4.50;;
46116;SDS011;32591;48.102;11.772;2022-12-13T04:21:56;14.77;;;5.00;;
46116;SDS011;32591;48.102;11.772;2022-12-13T04:24:24;10.07;;;4.43;;
46116;SDS011;32591;48.102;11.772;2022-12-13T04:26:51;13.13;;;4.40;;
46116;SDS011;32591;48.102;11.772;2022-12-13T04:29:18;8.57;;;4.13;;
46116;SDS011;32591;48.102;11.772;2022-12-13T04:31:46;9.83;;;4.57;;
46116;SDS011;32591;48.102;11.772;2022-12-13T04:34:12;6.80;;;3.80;;
46116;SDS011;32591;48.102;11.772;2022-12-13T04:36:39;10.53;;;4.00;;
46116;SDS011;32591;48.102;11.772;2022-12-13T04:39:06;7.83;;;3.77;;
46116;SDS011;32591;48.102;11.772;2022-12-13T04:41:35;9.00;;;4.47;;
46116;SDS011;32591;48.102;11.772;2022-12-13T04:44:04;9.03;;;4.23;;
46116;SDS011;32591;48.102;11.772;2022-12-13T04:46:33;11.33;;;4.67;;
46116;SDS011;32591;48.102;11.772;2022-12-13T04:49:00;12.03;;;4.20;;
46116;SDS011;32591;48.102;11.772;2022-12-13T04:51:27;5.70;;;3.90;;
46116;SDS011;32591;48.102;11.772;2022-12-13T04:53:55;11.47;;;4.70;;
46116;SDS011;32591;48.102;11.772;2022-12-13T04:56:22;11.90;;;4.23;;
46116;SDS011;32591;48.102;11.772;2022-12-13T04:58:50;8.83;;;4.90;;
46116;SDS011;32591;48.102;11.772;2022-12-13T05:01:17;9.53;;;4.37;;
46116;SDS011;32591;48.102;11.772;2022-12-13T05:03:44;10.17;;;5.07;;
46116;SDS011;32591;48.102;11.772;2022-12-13T05:06:12;8.53;;;4.23;;
46116;SDS011;32591;48.102;11.772;2022-12-13T05:08:40;10.57;;;4.07;;
46116;SDS011;32591;48.102;11.772;2022-12-13T05:11:07;6.70;;;3.87;;
46116;SDS011;32591;48.102;11.772;2022-12-13T05:13:35;7.47;;;4.13;;
46116;SDS011;32591;48.102;11.772;2022-12-13T05:16:05;6.40;;;3.50;;
46116;SDS011;32591;48.102;11.772;2022-12-13T05:18:34;8.43;;;4.10;;
46116;SDS011;32591;48.102;11.772;2022-12-13T05:21:04;11.37;;;4.50;;
46116;SDS011;32591;48.102;11.772;2022-12-13T05:23:34;8.90;;;4.17;;
46116;SDS011;32591;48.102;11.772;2022-12-13T05:26:01;10.40;;;3.87;;
46116;SDS011;32591;48.102;11.772;2022-12-13T05:28:30;7.70;;;4.40;;
46116;SDS011;32591;48.102;11.772;2022-12-13T05:31:03;7.50;;;4.43;;
46116;SDS011;32591;48.102;11.772;2022-12-13T05:33:34;9.53;;;4.83;;
46116;SDS011;32591;48.102;11.772;2022-12-13T05:36:01;7.63;;;4.23;;
46116;SDS011;32591;48.102;11.772;2022-12-13T05:38:29;7.10;;;3.37;;
46116;SDS011;32591;48.102;11.772;2022-12-13T05:40:57;7.33;;;4.03;;
46116;SDS011;32591;48.102;11.772;2022-12-13T05:43:24;8.20;;;4.60;;
46116;SDS011;32591;48.102;11.772;2022-12-13T05:45:51;8.63;;;3.10;;
46116;SDS011;32591;48.102;11.772;2022-12-13T05:48:19;11.77;;;5.13;;
46116;SDS011;32591;48.102;11.772;2022-12-13T05:50:47;6.83;;;3.60;;
46116;SDS011;32591;48.102;11.772;2022-12-13T05:53:14;7.40;;;4.03;;
46116;SDS011;32591;48.102;11.772;2022-12-13T05:55:42;7.40;;;3.47;;
46116;SDS011;32591;48.102;11.772;2022-12-13T05:58:09;6.27;;;3.30;;
46116;SDS011;32591;48.102;11.772;2022-12-13T06:00:39;11.30;;;4.27;;
46116;SDS011;32591;48.102;11.772;2022-12-13T06:03:06;7.03;;;3.70;;
46116;SDS011;32591;48.102;11.772;2022-12-13T06:05:35;7.43;;;4.20;;
46116;SDS011;32591;48.102;11.772;2022-12-13T06:08:02;10.07;;;4.27;;
46116;SDS011;32591;48.102;11.772;2022-12-13T06:10:30;7.97;;;4.57;;
46116;SDS011;32591;48.102;11.772;2022-12-13T06:12:58;9.40;;;4.27;;
46116;SDS011;32591;48.102;11.772;2022-12-13T06:15:25;7.77;;;4.03;;
46116;SDS011;32591;48.102;11.772;2022-12-13T06:17:52;9.43;;;4.00;;
46116;SDS011;32591;48.102;11.772;2022-12-13T06:20:19;7.70;;;3.77;;
46116;SDS011;32591;48.102;11.772;2022-12-13T06:22:48;10.73;;;5.37;;
46116;SDS011;32591;48.102;11.772;2022-12-13T06:25:15;11.97;;;5.00;;
46116;SDS011;32591;48.102;11.772;2022-12-13T06:27:42;9.83;;;4.67;;
46116;SDS011;32591;48.102;11.772;2022-12-13T06:30:10;10.77;;;4.57;;
46116;SDS011;32591;48.102;11.772;2022-12-13T06:32:38;10.50;;;4.97;;
46116;SDS011;32591;48.102;11.772;2022-12-13T06:35:05;10.43;;;5.27;;
46116;SDS011;32591;48.102;11.772;2022-12-13T06:37:33;7.90;;;3.87;;
46116;SDS011;32591;48.102;11.772;2022-12-13T06:40:02;11.10;;;5.37;;
46116;SDS011;32591;48.102;11.772;2022-12-13T06:42:30;9.43;;;3.87;;
46116;SDS011;32591;48.102;11.772;2022-12-13T06:44:57;7.87;;;4.63;;
46116;SDS011;32591;48.102;11.772;2022-12-13T06:47:24;7.70;;;5.07;;
46116;SDS011;32591;48.102;11.772;2022-12-13T06:49:52;10.67;;;4.73;;
46116;SDS011;32591;48.102;11.772;2022-12-13T06:52:19;5.60;;;3.50;;
46116;SDS011;32591;48.102;11.772;2022-12-13T06:54:46;9.33;;;4.03;;
46116;SDS011;32591;48.102;11.772;2022-12-13T06:57:14;12.17;;;5.47;;
46116;SDS011;32591;48.102;11.772;2022-12-13T06:59:41;9.17;;;4.03;;
46116;SDS011;32591;48.102;11.772;2022-12-13T07:02:08;9.13;;;4.73;;
46116;SDS011;32591;48.102;11.772;2022-12-13T07:04:35;14.80;;;4.70;;
46116;SDS011;32591;48.102;11.772;2022-12-13T07:07:02;7.63;;;4.10;;
46116;SDS011;32591;48.102;11.772;2022-12-13T07:09:29;8.07;;;4.47;;
46116;SDS011;32591;48.102;11.772;2022-12-13T07:11:57;8.13;;;4.03;;
46116;SDS011;32591;48.102;11.772;2022-12-13T07:14:26;8.53;;;5.03;;
46116;SDS011;32591;48.102;11.772;2022-12-13T07:16:53;10.83;;;4.27;;
46116;SDS011;32591;48.102;11.772;2022-12-13T07:19:20;7.37;;;3.43;;
46116;SDS011;32591;48.102;11.772;2022-12-13T07:21:47;7.97;;;4.47;;
46116;SDS011;32591;48.102;11.772;2022-12-13T07:24:15;7.87;;;3.73;;
46116;SDS011;32591;48.102;11.772;2022-12-13T07:26:42;10.03;;;4.27;;
46116;SDS011;32591;48.102;11.772;2022-12-13T07:29:09;8.87;;;4.17;;
46116;SDS011;32591;48.102;11.772;2022-12-13T07:31:37;9.10;;;4.67;;
46116;SDS011;32591;48.102;11.772;2022-12-13T07:34:04;10.63;;;4.37;;
46116;SDS011;32591;48.102;11.772;2022-12-13T07:36:31;15.03;;;5.50;;
46116;SDS011;32591;48.102;11.772;2022-12-13T07:38:58;11.03;;;4.50;;
46116;SDS011;32591;48.102;11.772;2022-12-13T07:41:26;11.43;;;4.80;;
46116;SDS011;32591;48.102;11.772;2022-12-13T07:43:53;14.23;;;4.73;;
46116;SDS011;32591;48.102;11.772;2022-12-13T07:46:20;8.17;;;4.57;;
46116;SDS011;32591;48.102;11.772;2022-12-13T07:48:49;11.27;;;5.03;;
46116;SDS011;32591;48.102;11.772;2022-12-13T07:51:16;12.10;;;4.33;;
46116;SDS011;32591;48.102;11.772;2022-12-13T07:53:43;10.53;;;4.40;;
46116;SDS011;32591;48.102;11.772;2022-12-13T07:56:10;8.80;;;5.30;;
46116;SDS011;32591;48.102;11.772;2022-12-13T07:58:37;6.93;;;4.57;;
46116;SDS011;32591;48.102;11.772;2022-12-13T08:01:07;6.53;;;4.37;;
46116;SDS011;32591;48.102;11.772;2022-12-13T08:03:36;8.43;;;5.23;;
46116;SDS011;32591;48.102;11.772;2022-12-13T08:06:06;15.40;;;5.70;;
46116;SDS011;32591;48.102;11.772;2022-12-13T08:08:35;13.63;;;6.43;;
46116;SDS011;32591;48.102;11.772;2022-12-13T08:11:05;14.03;;;6.40;;
46116;SDS011;32591;48.102;11.772;2022-12-13T08:13:33;11.67;;;6.03;;
46116;SDS011;32591;48.102;11.772;2022-12-13T08:16:02;11.93;;;6.10;;
46116;SDS011;32591;48.102;11.772;2022-12-13T08:18:32;12.00;;;6.57;;
46116;SDS011;32591;48.102;11.772;2022-12-13T08:20:59;11.20;;;5.90;;
46116;SDS011;32591;48.102;11.772;2022-12-13T08:23:29;22.73;;;7.37;;
46116;SDS011;32591;48.102;11.772;2022-12-13T08:25:58;9.83;;;5.90;;
46116;SDS011;32591;48.102;11.772;2022-12-13T08:28:27;11.60;;;5.47;;
46116;SDS011;32591;48.102;11.772;2022-12-13T08:31:00;12.90;;;5.37;;
46116;SDS011;32591;48.102;11.772;2022-12-13T08:33:29;12.20;;;5.03;;
46116;SDS011;32591;48.102;11.772;2022-12-13T08:35:57;10.37;;;5.37;;
46116;SDS011;32591;48.102;11.772;2022-12-13T08:38:24;9.77;;;5.00;;
46116;SDS011;32591;48.102;11.772;2022-12-13T08:40:52;9.63;;;5.37;;
46116;SDS011;32591;48.102;11.772;2022-12-13T08:43:19;8.87;;;5.37;;
46116;SDS011;32591;48.102;11.772;2022-12-13T08:45:48;11.70;;;4.53;;
46116;SDS011;32591;48.102;11.772;2022-12-13T08:48:15;8.17;;;4.87;;
46116;SDS011;32591;48.102;11.772;2022-12-13T08:50:42;13.43;;;6.13;;
46116;SDS011;32591;48.102;11.772;2022-12-13T08:53:09;12.70;;;5.87;;
46116;SDS011;32591;48.102;11.772;2022-12-13T08:55:36;9.30;;;5.00;;
46116;SDS011;32591;48.102;11.772;2022-12-13T08:58:05;13.00;;;5.67;;
46116;SDS011;32591;48.102;11.772;2022-12-13T09:00:33;10.80;;;5.50;;
46116;SDS011;32591;48.102;11.772;2022-12-13T09:03:00;13.13;;;5.10;;
46116;SDS011;32591;48.102;11.772;2022-12-13T09:05:28;10.50;;;5.20;;
46116;SDS011;32591;48.102;11.772;2022-12-13T09:07:56;12.73;;;4.97;;
46116;SDS011;32591;48.102;11.772;2022-12-13T09:10:23;10.47;;;5.20;;
46116;SDS011;32591;48.102;11.772;2022-12-13T09:12:52;9.20;;;4.73;;
46116;SDS011;32591;48.102;11.772;2022-12-13T09:15:21;11.27;;;5.80;;
46116;SDS011;32591;48.102;11.772;2022-12-13T09:17:48;14.00;;;5.87;;
46116;SDS011;32591;48.102;11.772;2022-12-13T09:20:15;13.60;;;4.80;;
46116;SDS011;32591;48.102;11.772;2022-12-13T09:22:43;11.43;;;5.33;;
46116;SDS011;32591;48.102;11.772;2022-12-13T09:25:10;14.67;;;5.80;;
46116;SDS011;32591;48.102;11.772;2022-12-13T09:27:37;12.33;;;5.07;;
46116;SDS011;32591;48.102;11.772;2022-12-13T09:30:05;9.37;;;5.17;;
46116;SDS011;32591;48.102;11.772;2022-12-13T09:32:38;12.10;;;5.50;;
46116;SDS011;32591;48.102;11.772;2022-12-13T09:35:06;11.87;;;5.50;;
46116;SDS011;32591;48.102;11.772;2022-12-13T09:37:34;12.00;;;6.20;;
46116;SDS011;32591;48.102;11.772;2022-12-13T09:40:01;12.00;;;5.07;;
46116;SDS011;32591;48.102;11.772;2022-12-13T09:42:29;14.20;;;5.23;;
46116;SDS011;32591;48.102;11.772;2022-12-13T09:44:59;14.83;;;6.13;;
46116;SDS011;32591;48.102;11.772;2022-12-13T09:47:30;9.93;;;4.63;;
46116;SDS011;32591;48.102;11.772;2022-12-13T09:50:04;13.80;;;5.77;;
46116;SDS011;32591;48.102;11.772;2022-12-13T09:52:35;15.30;;;5.67;;
46116;SDS011;32591;48.102;11.772;2022-12-13T09:55:13;13.97;;;5.20;;
46116;SDS011;32591;48.102;11.772;2022-12-13T09:57:46;11.23;;;5.87;;
46116;SDS011;32591;48.102;11.772;2022-12-13T10:00:15;14.20;;;6.03;;
46116;SDS011;32591;48.102;11.772;2022-12-13T10:02:46;10.07;;;5.20;;
46116;SDS011;32591;48.102;11.772;2022-12-13T10:05:21;10.93;;;5.27;;
46116;SDS011;32591;48.102;11.772;2022-12-13T10:07:55;16.67;;;5.77;;
46116;SDS011;32591;48.102;11.772;2022-12-13T10:10:25;11.57;;;5.47;;
46116;SDS011;32591;48.102;11.772;2022-12-13T10:12:55;13.17;;;5.10;;
46116;SDS011;32591;48.102;11.772;2022-12-13T10:15:29;13.17;;;5.53;;
46116;SDS011;32591;48.102;11.772;2022-12-13T10:17:59;12.83;;;5.63;;
46116;SDS011;32591;48.102;11.772;2022-12-13T10:20:31;9.53;;;4.97;;
46116;SDS011;32591;48.102;11.772;2022-12-13T10:23:00;8.67;;;4.07;;
46116;SDS011;32591;48.102;11.772;2022-12-13T10:25:43;9.60;;;4.63;;
46116;SDS011;32591;48.102;11.772;2022-12-13T10:28:14;8.80;;;4.30;;
46116;SDS011;32591;48.102;11.772;2022-12-13T10:30:44;10.90;;;5.00;;
46116;SDS011;32591;48.102;11.772;2022-12-13T10:33:18;10.03;;;4.17;;
46116;SDS011;32591;48.102;11.772;2022-12-13T10:38:41;7.93;;;4.30;;
46116;SDS011;32591;48.102;11.772;2022-12-13T10:41:24;11.90;;;5.00;;
46116;SDS011;32591;48.102;11.772;2022-12-13T10:44:07;7.90;;;4.03;;
46116;SDS011;32591;48.102;11.772;2022-12-13T10:46:46;7.97;;;4.13;;
46116;SDS011;32591;48.102;11.772;2022-12-13T10:49:17;8.57;;;3.80;;
46116;SDS011;32591;48.102;11.772;2022-12-13T10:51:48;9.63;;;3.73;;
46116;SDS011;32591;48.102;11.772;2022-12-13T10:54:19;9.30;;;4.63;;
46116;SDS011;32591;48.102;11.772;2022-12-13T10:56:53;9.90;;;4.20;;
46116;SDS011;32591;48.102;11.772;2022-12-13T10:59:26;8.37;;;4.23;;
46116;SDS011;32591;48.102;11.772;2022-12-13T11:01:58;10.33;;;4.87;;
46116;SDS011;32591;48.102;11.772;2022-12-13T11:04:29;14.47;;;5.63;;
46116;SDS011;32591;48.102;11.772;2022-12-13T11:07:00;8.23;;;4.10;;
46116;SDS011;32591;48.102;11.772;2022-12-13T11:09:47;9.67;;;4.87;;
46116;SDS011;32591;48.102;11.772;2022-12-13T11:12:15;11.07;;;5.23;;
46116;SDS011;32591;48.102;11.772;2022-12-13T11:14:47;10.80;;;4.87;;
46116;SDS011;32591;48.102;11.772;2022-12-13T11:17:20;12.07;;;4.27;;
46116;SDS011;32591;48.102;11.772;2022-12-13T11:19:50;9.40;;;4.80;;
46116;SDS011;32591;48.102;11.772;2022-12-13T11:22:22;7.47;;;4.43;;
46116;SDS011;32591;48.102;11.772;2022-12-13T11:24:54;9.23;;;4.73;;
46116;SDS011;32591;48.102;11.772;2022-12-13T11:27:29;9.63;;;4.67;;
46116;SDS011;32591;48.102;11.772;2022-12-13T11:30:21;9.63;;;4.37;;
46116;SDS011;32591;48.102;11.772;2022-12-13T11:33:00;7.93;;;4.27;;
46116;SDS011;32591;48.102;11.772;2022-12-13T11:35:44;11.80;;;4.80;;
46116;SDS011;32591;48.102;11.772;2022-12-13T11:38:30;7.43;;;3.77;;
46116;SDS011;32591;48.102;11.772;2022-12-13T11:41:05;9.43;;;5.03;;
46116;SDS011;32591;48.102;11.772;2022-12-13T11:43:42;9.50;;;4.70;;
46116;SDS011;32591;48.102;11.772;2022-12-13T11:46:19;10.87;;;4.60;;
46116;SDS011;32591;48.102;11.772;2022-12-13T11:48:57;9.80;;;4.50;;
46116;SDS011;32591;48.102;11.772;2022-12-13T11:51:30;7.73;;;4.03;;
46116;SDS011;32591;48.102;11.772;2022-12-13T11:54:07;10.97;;;4.73;;
46116;SDS011;32591;48.102;11.772;2022-12-13T11:56:41;11.47;;;4.87;;
46116;SDS011;32591;48.102;11.772;2022-12-13T11:59:13;10.13;;;4.63;;
46116;SDS011;32591;48.102;11.772;2022-12-13T12:01:50;11.33;;;5.17;;
46116;SDS011;32591;48.102;11.772;2022-12-13T12:04:22;11.17;;;4.97;;
46116;SDS011;32591;48.102;11.772;2022-12-13T12:06:58;7.97;;;4.50;;
46116;SDS011;32591;48.102;11.772;2022-12-13T12:09:32;9.33;;;4.73;;
46116;SDS011;32591;48.102;11.772;2022-12-13T12:12:02;13.33;;;4.53;;
46116;SDS011;32591;48.102;11.772;2022-12-13T12:14:37;8.53;;;4.17;;
46116;SDS011;32591;48.102;11.772;2022-12-13T12:17:11;10.47;;;4.73;;
46116;SDS011;32591;48.102;11.772;2022-12-13T12:19:41;11.97;;;5.07;;
46116;SDS011;32591;48.102;11.772;2022-12-13T12:22:16;11.10;;;4.90;;
46116;SDS011;32591;48.102;11.772;2022-12-13T12:25:05;10.17;;;4.20;;
46116;SDS011;32591;48.102;11.772;2022-12-13T12:27:50;13.70;;;7.10;;
46116;SDS011;32591;48.102;11.772;2022-12-13T12:30:31;11.53;;;5.40;;
46116;SDS011;32591;48.102;11.772;2022-12-13T12:33:10;11.23;;;4.70;;
46116;SDS011;32591;48.102;11.772;2022-12-13T12:35:50;9.60;;;5.03;;
46116;SDS011;32591;48.102;11.772;2022-12-13T12:38:43;9.87;;;5.03;;
46116;SDS011;32591;48.102;11.772;2022-12-13T12:41:37;11.13;;;5.22;;
46116;SDS011;32591;48.102;11.772;2022-12-13T12:44:19;8.53;;;4.17;;
46116;SDS011;32591;48.102;11.772;2022-12-13T12:47:01;11.03;;;5.07;;
46116;SDS011;32591;48.102;11.772;2022-12-13T12:49:51;11.20;;;5.20;;
46116;SDS011;32591;48.102;11.772;2022-12-13T12:52:50;12.37;;;5.23;;
46116;SDS011;32591;48.102;11.772;2022-12-13T12:55:27;8.60;;;5.43;;
46116;SDS011;32591;48.102;11.772;2022-12-13T12:58:07;10.40;;;4.67;;
46116;SDS011;32591;48.102;11.772;2022-12-13T13:00:50;10.10;;;4.53;;
46116;SDS011;32591;48.102;11.772;2022-12-13T13:03:29;11.60;;;4.43;;
46116;SDS011;32591;48.102;11.772;2022-12-13T13:06:01;10.30;;;4.73;;
46116;SDS011;32591;48.102;11.772;2022-12-13T13:08:36;14.40;;;5.77;;
46116;SDS011;32591;48.102;11.772;2022-12-13T13:11:08;9.63;;;4.33;;
46116;SDS011;32591;48.102;11.772;2022-12-13T13:13:44;9.57;;;5.73;;
46116;SDS011;32591;48.102;11.772;2022-12-13T13:16:34;8.48;;;3.75;;
46116;SDS011;32591;48.102;11.772;2022-12-13T13:19:03;7.90;;;4.00;;
46116;SDS011;32591;48.102;11.772;2022-12-13T13:21:48;11.57;;;4.63;;
46116;SDS011;32591;48.102;11.772;2022-12-13T13:24:17;9.87;;;4.63;;
46116;SDS011;32591;48.102;11.772;2022-12-13T13:26:48;12.20;;;5.80;;
46116;SDS011;32591;48.102;11.772;2022-12-13T13:29:32;9.23;;;4.83;;
46116;SDS011;32591;48.102;11.772;2022-12-13T13:32:03;12.57;;;5.37;;
46116;SDS011;32591;48.102;11.772;2022-12-13T13:34:53;12.23;;;4.87;;
46116;SDS011;32591;48.102;11.772;2022-12-13T13:37:26;8.90;;;4.37;;
46116;SDS011;32591;48.102;11.772;2022-12-13T13:40:25;9.27;;;4.43;;
46116;SDS011;32591;48.102;11.772;2022-12-13T13:43:03;10.95;;;5.22;;
46116;SDS011;32591;48.102;11.772;2022-12-13T13:45:52;12.83;;;6.40;;
46116;SDS011;32591;48.102;11.772;2022-12-13T13:48:28;13.57;;;4.97;;
46116;SDS011;32591;48.102;11.772;2022-12-13T13:51:26;8.73;;;4.80;;
46116;SDS011;32591;48.102;11.772;2022-12-13T13:57:37;10.40;;;5.10;;
46116;SDS011;32591;48.102;11.772;2022-12-13T14:00:53;14.13;;;5.83;;
46116;SDS011;32591;48.102;11.772;2022-12-13T14:04:07;10.97;;;4.87;;
46116;SDS011;32591;48.102;11.772;2022-12-13T14:06:59;12.27;;;5.60;;
46116;SDS011;32591;48.102;11.772;2022-12-13T14:10:06;16.20;;;6.37;;
46116;SDS011;32591;48.102;11.772;2022-12-13T14:13:01;11.30;;;4.83;;
46116;SDS011;32591;48.102;11.772;2022-12-13T14:19:13;16.20;;;6.73;;
46116;SDS011;32591;48.102;11.772;2022-12-13T14:22:12;13.10;;;5.73;;
46116;SDS011;32591;48.102;11.772;2022-12-13T14:24:50;16.33;;;6.50;;
46116;SDS011;32591;48.102;11.772;2022-12-13T14:27:31;17.40;;;6.40;;
46116;SDS011;32591;48.102;11.772;2022-12-13T14:30:11;16.03;;;7.03;;
46116;SDS011;32591;48.102;11.772;2022-12-13T14:32:41;16.27;;;6.80;;
46116;SDS011;32591;48.102;11.772;2022-12-13T14:35:19;15.27;;;7.07;;
46116;SDS011;32591;48.102;11.772;2022-12-13T14:37:56;15.27;;;5.77;;
46116;SDS011;32591;48.102;11.772;2022-12-13T14:40:27;17.23;;;6.40;;
46116;SDS011;32591;48.102;11.772;2022-12-13T14:42:56;14.47;;;6.30;;
46116;SDS011;32591;48.102;11.772;2022-12-13T14:45:25;13.60;;;6.70;;
46116;SDS011;32591;48.102;11.772;2022-12-13T14:47:56;17.43;;;6.70;;
46116;SDS011;32591;48.102;11.772;2022-12-13T14:50:27;17.27;;;7.80;;
46116;SDS011;32591;48.102;11.772;2022-12-13T14:52:59;17.50;;;7.53;;
46116;SDS011;32591;48.102;11.772;2022-12-13T14:55:28;14.50;;;7.07;;
46116;SDS011;32591;48.102;11.772;2022-12-13T14:57:58;15.10;;;6.30;;
46116;SDS011;32591;48.102;11.772;2022-12-13T15:00:27;16.47;;;7.13;;
46116;SDS011;32591;48.102;11.772;2022-12-13T15:02:58;13.73;;;6.33;;
46116;SDS011;32591;48.102;11.772;2022-12-13T15:05:28;14.50;;;7.20;;
46116;SDS011;32591;48.102;11.772;2022-12-13T15:07:59;17.80;;;7.93;;
46116;SDS011;32591;48.102;11.772;2022-12-13T15:10:28;19.40;;;8.03;;
46116;SDS011;32591;48.102;11.772;2022-12-13T15:13:02;16.87;;;8.13;;
46116;SDS011;32591;48.102;11.772;2022-12-13T15:15:31;17.37;;;7.50;;